^^
Soleil Laural Canyon Historical Data
Daily Summary for October 21, 2019 Units:  Metric    English   Both
Daily Weekly Monthly Yearly Custom
  High: Low: Average:
Temperature: 22.9 °C 11.3 °C 16.8 °C
Dew Point: 18.1 °C 10.9 °C 15.3 °C
Humidity: 97% 72% 91%
Wind Speed: 13km/h 0km/h 3.9km/h
Wind Gust: 16.6km/h - -
Wind- - WNW
Pressure: 1018.8 hPa 1014.8 hPa -
Precipitation: 2.03 mm    
Historical Graphs
 
 
Tabular Data for October 21, 2019
Time Temperature Dew Point Pressure Wind Wind Speed Wind Gust Humidity Rainfall Rate (Hourly) solar
00:00 13.6 °C 13 °C 1017.2 hPa Calm     96% 0 mm 0.00 W/m2
00:05 13.7 °C 13.1 °C 1016.8 hPa Calm     96% 0 mm 0.00 W/m2
00:10 13.4 °C 12.8 °C 1016.5 hPa Calm     96% 0 mm 0.00 W/m2
00:15 13.4 °C 12.8 °C 1016.8 hPa Calm     96% 0 mm 0.00 W/m2
00:20 13.3 °C 12.7 °C 1016.8 hPa Calm     96% 0 mm 0.00 W/m2
00:25 13.4 °C 13 °C 1017.2 hPa Calm     97% 0 mm 0.00 W/m2
00:30 13.3 °C 12.7 °C 1016.8 hPa Calm     96% 0 mm 0.00 W/m2
00:35 13 °C 12.4 °C 1016.8 hPa Calm     96% 0 mm 0.00 W/m2
00:40 13 °C 12.4 °C 1016.8 hPa Calm     96% 0 mm 0.00 W/m2
00:45 12.8 °C 12.4 °C 1016.8 hPa Calm     97% 0 mm 0.00 W/m2
00:50 12.9 °C 12.5 °C 1017.2 hPa Calm     97% 0 mm 0.00 W/m2
00:55 12.8 °C 12.4 °C 1016.8 hPa Calm     97% 0 mm 0.00 W/m2
01:00 12.8 °C 12.4 °C 1016.8 hPa Calm     97% 0 mm 0.00 W/m2
01:05 12.7 °C 12.3 °C 1016.8 hPa Calm     97% 0 mm 0.00 W/m2
01:10 12.5 °C 12.1 °C 1016.8 hPa Calm     97% 0 mm 0.00 W/m2
01:15 12.6 °C 12.2 °C 1016.5 hPa Calm     97% 0 mm 0.00 W/m2
01:20 12.5 °C 12.1 °C 1016.8 hPa Calm     97% 0 mm 0.00 W/m2
01:25 12.4 °C 12 °C 1016.8 hPa Calm     97% 0 mm 0.00 W/m2
01:30 12.3 °C 11.9 °C 1016.8 hPa Calm     97% 0 mm 0.00 W/m2
01:35 12.6 °C 12.2 °C 1016.5 hPa Calm     97% 0 mm 0.00 W/m2
01:40 12.4 °C 12 °C 1016.5 hPa Calm     97% 0 mm 0.00 W/m2
01:45 12.3 °C 11.9 °C 1016.5 hPa Calm     97% 0 mm 0.00 W/m2
01:50 12.3 °C 11.9 °C 1016.5 hPa Calm     97% 0 mm 0.00 W/m2
01:55 12.3 °C 11.9 °C 1016.5 hPa Calm     97% 0 mm 0.00 W/m2
02:00 12.3 °C 11.9 °C 1016.5 hPa Calm     97% 0 mm 0.00 W/m2
02:05 12.4 °C 12 °C 1016.5 hPa Calm     97% 0 mm 0.00 W/m2
02:10 12.3 °C 11.9 °C 1016.5 hPa Calm     97% 0 mm 0.00 W/m2
02:15 12.3 °C 11.9 °C 1016.8 hPa Calm     97% 0 mm 0.00 W/m2
02:20 12.3 °C 11.9 °C 1016.5 hPa Calm     97% 0 mm 0.00 W/m2
02:25 12.2 °C 11.8 °C 1016.5 hPa Calm     97% 0 mm 0.00 W/m2
02:30 12.1 °C 11.7 °C 1016.8 hPa Calm     97% 0 mm 0.00 W/m2
02:35 12.4 °C 12 °C 1016.8 hPa Calm     97% 0 mm 0.00 W/m2
02:40 12 °C 11.6 °C 1017.2 hPa Calm     97% 0 mm 0.00 W/m2
02:45 11.9 °C 11.5 °C 1016.8 hPa Calm     97% 0 mm 0.00 W/m2
02:50 12 °C 11.6 °C 1016.8 hPa Calm     97% 0 mm 0.00 W/m2
02:55 11.7 °C 11.3 °C 1016.5 hPa Calm     97% 0 mm 0.00 W/m2
03:00 11.5 °C 11.1 °C 1016.5 hPa Calm     97% 0 mm 0.00 W/m2
03:05 11.6 °C 11.2 °C 1016.5 hPa Calm     97% 0 mm 0.00 W/m2
03:10 11.8 °C 11.4 °C 1016.5 hPa Calm     97% 0 mm 0.00 W/m2
03:15 11.8 °C 11.4 °C 1016.5 hPa Calm     97% 0 mm 0.00 W/m2
03:20 11.4 °C 11 °C 1016.5 hPa Calm     97% 0 mm 0.00 W/m2
03:25 11.3 °C 10.9 °C 1016.5 hPa Calm     97% 0 mm 0.00 W/m2
03:30 11.5 °C 11.1 °C 1016.1 hPa Calm     97% 0 mm 0.00 W/m2
03:35 11.7 °C 11.3 °C 1016.1 hPa Calm     97% 0 mm 0.00 W/m2
03:40 12 °C 11.6 °C 1016.5 hPa Calm     97% 0 mm 0.00 W/m2
03:45 11.7 °C 11.3 °C 1016.5 hPa West 0.3 km/h 1.8 km/h 97% 0 mm 0.00 W/m2
03:50 11.3 °C 10.9 °C 1016.1 hPa Calm     97% 0 mm 0.00 W/m2
03:55 11.4 °C 11 °C 1016.1 hPa Calm     97% 0 mm 0.00 W/m2
04:00 11.6 °C 11.2 °C 1015.8 hPa Calm     97% 0 mm 0.00 W/m2
04:05 11.6 °C 11.2 °C 1016.1 hPa Calm     97% 0 mm 0.00 W/m2
04:10 11.6 °C 11.2 °C 1015.8 hPa Calm     97% 0 mm 0.00 W/m2
04:15 11.6 °C 11.2 °C 1016.1 hPa Calm     97% 0 mm 0.00 W/m2
04:20 11.6 °C 11.2 °C 1015.8 hPa Calm     97% 0 mm 0.00 W/m2
04:25 11.6 °C 11.2 °C 1015.8 hPa Calm     97% 0 mm 0.00 W/m2
04:30 11.6 °C 11.2 °C 1016.1 hPa Calm     97% 0 mm 0.00 W/m2
04:35 11.6 °C 11.2 °C 1016.1 hPa Calm     97% 0 mm 0.00 W/m2
04:40 11.6 °C 11.2 °C 1015.8 hPa Calm     97% 0 mm 0.00 W/m2
04:45 12.3 °C 11.9 °C 1015.8 hPa West 2.1 km/h 3.5 km/h 97% 0 mm 0.00 W/m2
04:50 12.3 °C 11.9 °C 1015.8 hPa WNW 1.4 km/h 1.8 km/h 97% 0 mm 0.00 W/m2
04:55 12.3 °C 11.9 °C 1016.1 hPa Calm     97% 0 mm 0.00 W/m2
05:00 12.3 °C 11.9 °C 1015.8 hPa West 0.3 km/h 1.8 km/h 97% 0 mm 0.00 W/m2
05:05 12.4 °C 12 °C 1015.8 hPa West 3.5 km/h 3.5 km/h 97% 0 mm 0.00 W/m2
05:10 12.4 °C 12 °C 1016.1 hPa Calm     97% 0 mm 0.00 W/m2
05:15 12.5 °C 12.1 °C 1016.1 hPa West 1.4 km/h 1.8 km/h 97% 0 mm 0.00 W/m2
05:20 12.5 °C 12.1 °C 1016.5 hPa West 1.4 km/h 1.8 km/h 97% 0 mm 0.00 W/m2
05:25 12.6 °C 12.2 °C 1016.5 hPa WNW 1.8 km/h 1.8 km/h 97% 0 mm 0.00 W/m2
05:30 12.6 °C 12.2 °C 1016.5 hPa Calm     97% 0 mm 0.00 W/m2
05:35 12.6 °C 12.2 °C 1016.5 hPa Calm     97% 0 mm 0.00 W/m2
05:40 12.6 °C 12.2 °C 1016.5 hPa Calm     97% 0 mm 0.00 W/m2
05:45 12.3 °C 11.9 °C 1016.5 hPa Calm     97% 0 mm 0.00 W/m2
05:51 12.4 °C 12 °C 1016.1 hPa WNW 0.6 km/h 1.8 km/h 97% 0 mm 0.00 W/m2
05:55 12.4 °C 12 °C 1016.1 hPa WNW 1.4 km/h 1.8 km/h 97% 0 mm 0.00 W/m2
06:00 12.3 °C 11.9 °C 1016.1 hPa WNW 2.9 km/h 3.5 km/h 97% 0 mm 0.00 W/m2
06:05 12.4 °C 12 °C 1015.8 hPa Calm     97% 0 mm 0.00 W/m2
06:10 12.2 °C 11.8 °C 1016.1 hPa Calm     97% 0 mm 0.00 W/m2
06:15 12.3 °C 11.9 °C 1016.5 hPa WNW 0.3 km/h 1.8 km/h 97% 0 mm 0.00 W/m2
06:20 12.3 °C 11.9 °C 1016.5 hPa Calm     97% 0 mm 0.00 W/m2
06:25 12.5 °C 12.1 °C 1016.5 hPa WNW 1.8 km/h 1.8 km/h 97% 0 mm 0.00 W/m2
06:30 12.6 °C 12.2 °C 1016.5 hPa West 2.6 km/h 3.5 km/h 97% 0 mm 0.00 W/m2
06:35 12.8 °C 12.4 °C 1016.8 hPa West 1.4 km/h 1.8 km/h 97% 0 mm 0.00 W/m2
06:40 12.8 °C 12.4 °C 1016.5 hPa WNW 3.2 km/h 3.5 km/h 97% 0 mm 0.00 W/m2
06:45 12.8 °C 12.4 °C 1017.2 hPa Calm     97% 0 mm 0.00 W/m2
06:50 12.7 °C 12.3 °C 1016.8 hPa WNW 2.6 km/h 3.5 km/h 97% 0 mm 0.00 W/m2
06:55 12.8 °C 12.4 °C 1016.8 hPa West 1.8 km/h 1.8 km/h 97% 0 mm 0.00 W/m2
07:00 13 °C 12.6 °C 1017.2 hPa West 4 km/h 5.5 km/h 97% 0 mm 0.00 W/m2
07:05 13 °C 12.6 °C 1016.8 hPa WSW 3.5 km/h 5.5 km/h 97% 0 mm 0.00 W/m2
07:10 13 °C 12.6 °C 1017.2 hPa WSW 3.5 km/h 5.5 km/h 97% 0 mm 0.00 W/m2
07:15 13 °C 12.6 °C 1017.2 hPa WSW 3.5 km/h 5.5 km/h 97% 0 mm 0.00 W/m2
07:20 13 °C 12.6 °C 1017.2 hPa WSW 3.5 km/h 5.5 km/h 97% 0 mm 0.00 W/m2
07:25 13 °C 12.6 °C 1017.2 hPa WSW 3.5 km/h 5.5 km/h 97% 0 mm 0.00 W/m2
07:30 13 °C 12.6 °C 1017.2 hPa WSW 3.5 km/h 5.5 km/h 97% 0 mm 0.00 W/m2
07:35 13 °C 12.6 °C 1017.2 hPa West 3.5 km/h 3.5 km/h 97% 0 mm 0.00 W/m2
07:40 12.9 °C 12.5 °C 1017.2 hPa WNW 2.9 km/h 3.5 km/h 97% 0 mm 0.00 W/m2
07:45 12.9 °C 12.5 °C 1016.8 hPa WNW 2.9 km/h 3.5 km/h 97% 0 mm 0.00 W/m2
07:50 12.9 °C 12.5 °C 1016.8 hPa WNW 2.9 km/h 3.5 km/h 97% 0 mm 0.00 W/m2
07:55 12.9 °C 12.5 °C 1017.2 hPa WNW 2.9 km/h 3.5 km/h 97% 0 mm 0.00 W/m2
08:00 12.8 °C 12.4 °C 1017.2 hPa West 3.5 km/h 5.5 km/h 97% 0 mm 8.56 W/m2
08:05 12.8 °C 12.4 °C 1016.8 hPa West 3.2 km/h 3.5 km/h 97% 0 mm 12.11 W/m2
08:10 12.9 °C 12.5 °C 1017.2 hPa West 5.8 km/h 7.2 km/h 97% 0 mm 12.97 W/m2
08:15 13 °C 12.6 °C 1017.2 hPa West 2.6 km/h 3.5 km/h 97% 0 mm 13.82 W/m2
08:20 13.1 °C 12.7 °C 1017.2 hPa West 4.7 km/h 5.5 km/h 97% 0 mm 19.08 W/m2
08:25 13.3 °C 12.9 °C 1017.5 hPa West 5.5 km/h 5.5 km/h 97% 0 mm 20.80 W/m2
08:30 13.4 °C 13 °C 1017.2 hPa West 5.5 km/h 7.2 km/h 97% 0 mm 25.07 W/m2
08:35 13.6 °C 13.2 °C 1017.2 hPa West 7.9 km/h 11.1 km/h 97% 0 mm 26.42 W/m2
08:40 13.7 °C 13.3 °C 1017.2 hPa WNW 5.5 km/h 7.2 km/h 97% 0 mm 43.31 W/m2
08:45 13.8 °C 13.4 °C 1017.5 hPa WNW 5.5 km/h 9.3 km/h 97% 0 mm 45.51 W/m2
08:50 13.9 °C 13.5 °C 1017.5 hPa WNW 7.2 km/h 9.3 km/h 97% 0 mm 51.50 W/m2
08:55 14 °C 13.6 °C 1017.2 hPa WNW 6.4 km/h 9.3 km/h 97% 0 mm 63.24 W/m2
09:00 14.2 °C 13.8 °C 1017.5 hPa WNW 5.5 km/h 5.5 km/h 97% 0 mm 91.87 W/m2
09:05 14.3 °C 13.9 °C 1017.5 hPa WNW 6.1 km/h 7.2 km/h 97% 0 mm 102.76 W/m2
09:10 14.5 °C 14.1 °C 1017.5 hPa WNW 6.1 km/h 7.2 km/h 97% 0 mm 110.59 W/m2
09:15 14.5 °C 14.1 °C 1017.5 hPa WNW 2.9 km/h 3.5 km/h 97% 0 mm 124.05 W/m2
09:20 14.5 °C 14.1 °C 1017.8 hPa WNW 2.9 km/h 3.5 km/h 97% 0 mm 124.05 W/m2
09:25 14.6 °C 14.2 °C 1017.8 hPa West 6.4 km/h 7.2 km/h 97% 0 mm 92.73 W/m2
09:30 14.8 °C 14.4 °C 1017.8 hPa West 2.1 km/h 3.5 km/h 97% 0 mm 103.61 W/m2
09:35 14.9 °C 14.5 °C 1017.8 hPa NW 5.8 km/h 7.2 km/h 97% 0 mm 90.65 W/m2
09:40 14.9 °C 14.5 °C 1017.8 hPa West 6.4 km/h 7.2 km/h 97% 0 mm 82.33 W/m2
09:45 15 °C 14.6 °C 1017.8 hPa WSW 5.5 km/h 5.5 km/h 97% 0 mm 68.51 W/m2
09:50 15.1 °C 14.7 °C 1018.2 hPa West 5.5 km/h 5.5 km/h 97% 0 mm 65.45 W/m2
09:55 15.1 °C 14.7 °C 1017.8 hPa WNW 6.1 km/h 7.2 km/h 97% 0 mm 61.53 W/m2
10:00 15.1 °C 14.7 °C 1017.8 hPa West 2.1 km/h 3.5 km/h 97% 0 mm 72.79 W/m2
10:05 15.2 °C 14.8 °C 1017.8 hPa West 7.9 km/h 11.1 km/h 97% 0 mm 74.99 W/m2
10:10 15.3 °C 14.9 °C 1018.2 hPa WNW 6.4 km/h 7.2 km/h 97% 0 mm 66.80 W/m2
10:15 15.3 °C 14.9 °C 1018.2 hPa West 4.3 km/h 5.5 km/h 97% 0 mm 70.71 W/m2
10:20 15.4 °C 15 °C 1018.2 hPa West 2.9 km/h 3.5 km/h 97% 0 mm 104.10 W/m2
10:25 15.6 °C 15.2 °C 1018.2 hPa WNW 4 km/h 5.5 km/h 97% 0 mm 92.73 W/m2
10:30 15.6 °C 15.2 °C 1018.5 hPa NW 2.9 km/h 3.5 km/h 97% 0 mm 92.73 W/m2
10:35 15.7 °C 15.3 °C 1018.8 hPa West 1.4 km/h 1.8 km/h 97% 0 mm 94.93 W/m2
10:40 15.7 °C 15.3 °C 1018.5 hPa West 5.5 km/h 7.2 km/h 97% 0 mm 102.27 W/m2
10:45 15.8 °C 15.4 °C 1018.5 hPa WNW 8.7 km/h 11.1 km/h 97% 0 mm 117.07 W/m2
10:50 15.9 °C 15.5 °C 1018.5 hPa West 5.5 km/h 5.5 km/h 97% 0 mm 120.99 W/m2
10:55 15.9 °C 15.5 °C 1018.2 hPa West 4.7 km/h 5.5 km/h 97% 0 mm 124.41 W/m2
11:00 16 °C 15.6 °C 1017.8 hPa West 5.5 km/h 5.5 km/h 97% 0 mm 137.51 W/m2
11:05 16.2 °C 15.8 °C 1017.8 hPa WNW 5.5 km/h 5.5 km/h 97% 0 mm 155.24 W/m2
11:10 16.3 °C 15.9 °C 1017.5 hPa WNW 8.2 km/h 9.3 km/h 97% 0 mm 178.24 W/m2
11:15 16.5 °C 15.9 °C 1017.5 hPa WNW 7.2 km/h 9.3 km/h 96% 0 mm 204.66 W/m2
11:20 16.6 °C 16 °C 1017.5 hPa NW 6.1 km/h 7.2 km/h 96% 0 mm 193.90 W/m2
11:25 16.8 °C 16 °C 1017.2 hPa WSW 6.1 km/h 7.2 km/h 95% 0 mm 245.52 W/m2
11:30 17.2 °C 16.1 °C 1017.2 hPa WNW 4.7 km/h 5.5 km/h 94% 0 mm 215.07 W/m2
11:35 17.4 °C 16.2 °C 1017.2 hPa NW 7.2 km/h 11.1 km/h 93% 0 mm 284.92 W/m2
11:40 17.8 °C 16.5 °C 1017.2 hPa NW 8.7 km/h 13 km/h 92% 0 mm 185.58 W/m2
11:45 18 °C 16.5 °C 1017.2 hPa NW 3.5 km/h 5.5 km/h 91% 0 mm 166.50 W/m2
11:50 18.1 °C 16.4 °C 1017.2 hPa West 9.3 km/h 11.1 km/h 90% 0 mm 204.30 W/m2
11:55 18.1 °C 16.4 °C 1017.2 hPa West 6.9 km/h 7.2 km/h 90% 0 mm 238.56 W/m2
12:00 18.6 °C 16.7 °C 1017.5 hPa WNW 9.3 km/h 11.1 km/h 89% 0 mm 238.92 W/m2
12:05 18.7 °C 16.8 °C 1017.2 hPa West 4.3 km/h 5.5 km/h 89% 0 mm 251.52 W/m2
12:10 18.8 °C 16.7 °C 1017.2 hPa West 6.4 km/h 7.2 km/h 88% 0 mm 261.55 W/m2
12:15 18.8 °C 16.7 °C 1017.5 hPa West 4.7 km/h 5.5 km/h 88% 0 mm 210.78 W/m2
12:20 18.9 °C 16.8 °C 1017.2 hPa WSW 11.1 km/h 13 km/h 88% 0 mm 207.73 W/m2
12:25 19.1 °C 16.9 °C 1017.2 hPa NW 9.3 km/h 13 km/h 87% 0 mm 304.49 W/m2
12:30 19.4 °C 17.2 °C 1017.5 hPa West 1.8 km/h 1.8 km/h 87% 0 mm 259.84 W/m2
12:35 19.4 °C 17.2 °C 1017.8 hPa West 1.8 km/h 1.8 km/h 87% 0 mm 259.84 W/m2
12:40 19.7 °C 17.3 °C 1017.5 hPa NW 7.2 km/h 9.3 km/h 86% 0 mm 230.24 W/m2
12:45 19.8 °C 17.2 °C 1017.5 hPa NW 7.9 km/h 9.3 km/h 85% 0 mm 264.12 W/m2
12:50 19.9 °C 17.3 °C 1017.8 hPa NW 7.9 km/h 9.3 km/h 85% 0 mm 319.66 W/m2
12:55 20.3 °C 17.3 °C 1017.2 hPa NW 6.1 km/h 9.3 km/h 83% 0 mm 303.64 W/m2
13:00 20.3 °C 17.3 °C 1017.2 hPa WNW 6.4 km/h 9.3 km/h 83% 0 mm 324.44 W/m2
13:05 20.5 °C 17.5 °C 1017.2 hPa NNW 4.3 km/h 5.5 km/h 83% 0 mm 204.66 W/m2
13:10 20.6 °C 17.4 °C 1017.5 hPa NNW 8.7 km/h 11.1 km/h 82% 0 mm 268.52 W/m2
13:15 20.7 °C 17.5 °C 1017.5 hPa West 9.7 km/h 11.1 km/h 82% 0 mm 408.97 W/m2
13:20 20.7 °C 17.3 °C 1017.2 hPa West 13 km/h 16.6 km/h 81% 0 mm 397.71 W/m2
13:25 20.9 °C 17.5 °C 1017.2 hPa NNW 7.2 km/h 9.3 km/h 81% 0 mm 346.57 W/m2
13:30 20.9 °C 17.3 °C 1017.2 hPa NW 7.6 km/h 13 km/h 80% 0 mm 322.72 W/m2
13:35 20.9 °C 17.3 °C 1017.2 hPa West 4.7 km/h 7.2 km/h 80% 0 mm 322.72 W/m2
13:40 21 °C 17.4 °C 1016.8 hPa NW 12.2 km/h 16.6 km/h 80% 0 mm 266.69 W/m2
13:45 20.9 °C 17.3 °C 1017.5 hPa WNW 6.4 km/h 9.3 km/h 80% 0 mm 247.24 W/m2
13:50 21 °C 17.4 °C 1017.2 hPa West 10.5 km/h 13 km/h 80% 0 mm 239.78 W/m2
13:55 21 °C 17.4 °C 1016.8 hPa West 10.5 km/h 13 km/h 80% 0 mm 243.69 W/m2
14:00 21 °C 17.4 °C 1016.8 hPa NW 5.5 km/h 9.3 km/h 80% 0 mm 233.29 W/m2
14:05 21.2 °C 17.4 °C 1016.8 hPa West 11.1 km/h 13 km/h 79% 0 mm 324.44 W/m2
14:10 21.4 °C 17.6 °C 1016.8 hPa NNW 7.6 km/h 11.1 km/h 79% 0 mm 403.83 W/m2
14:15 21.6 °C 17.6 °C 1016.8 hPa West 7.9 km/h 11.1 km/h 78% 0 mm 318.32 W/m2
14:20 21.6 °C 17.6 °C 1016.5 hPa WNW 6.1 km/h 7.2 km/h 78% 0 mm 279.78 W/m2
14:25 21.8 °C 17.8 °C 1016.5 hPa West 6.4 km/h 7.2 km/h 78% 0 mm 319.66 W/m2
14:30 22 °C 17.8 °C 1016.8 hPa NNW 6.9 km/h 7.2 km/h 77% 0 mm 448.48 W/m2
14:35 22.2 °C 18 °C 1016.8 hPa WSW 4 km/h 5.5 km/h 77% 0 mm 353.91 W/m2
14:40 22.1 °C 17.7 °C 1016.5 hPa WNW 9.3 km/h 11.1 km/h 76% 0 mm 400.77 W/m2
14:45 22.1 °C 17.9 °C 1016.5 hPa West 2.9 km/h 3.5 km/h 77% 0 mm 271.46 W/m2
14:50 22.1 °C 17.7 °C 1016.5 hPa NW 11.1 km/h 13 km/h 76% 0 mm 226.81 W/m2
14:55 22.2 °C 17.8 °C 1016.5 hPa WNW 8.7 km/h 11.1 km/h 76% 0 mm 216.41 W/m2
15:00 22.2 °C 17.8 °C 1016.5 hPa West 6.4 km/h 7.2 km/h 76% 0 mm 183.87 W/m2
15:05 22.1 °C 17.9 °C 1016.5 hPa WNW 4 km/h 5.5 km/h 77% 0 mm 333.98 W/m2
15:10 22.5 °C 17.4 °C 1016.5 hPa North 2.1 km/h 5.5 km/h 73% 0 mm 291.89 W/m2
15:15 22.7 °C 17.6 °C 1016.8 hPa WNW 4 km/h 5.5 km/h 73% 0 mm 259.35 W/m2
15:20 22.7 °C 17.8 °C 1016.5 hPa NNW 6.1 km/h 7.2 km/h 74% 0 mm 264.61 W/m2
15:25 22.6 °C 18 °C 1016.5 hPa West 6.1 km/h 7.2 km/h 75% 0 mm 216.90 W/m2
15:30 22.4 °C 17.5 °C 1016.5 hPa NW 2.1 km/h 3.5 km/h 74% 0 mm 196.47 W/m2
15:35 22.4 °C 17.8 °C 1016.5 hPa West 4 km/h 5.5 km/h 75% 0 mm 146.56 W/m2
15:40 22.5 °C 17.4 °C 1016.5 hPa NNW 4 km/h 5.5 km/h 73% 0 mm 199.90 W/m2
15:45 22.5 °C 17.4 °C 1016.5 hPa NNW 6.9 km/h 9.3 km/h 73% 0 mm 169.07 W/m2
15:50 22.3 °C 17.2 °C 1016.5 hPa WNW 6.1 km/h 7.2 km/h 73% 0 mm 160.02 W/m2
15:55 22.2 °C 17.1 °C 1016.1 hPa West 6.1 km/h 9.3 km/h 73% 0 mm 152.19 W/m2
16:00 22.2 °C 17.1 °C 1015.8 hPa WNW 3.5 km/h 3.5 km/h 73% 0 mm 216.41 W/m2
16:05 22.4 °C 17.3 °C 1016.1 hPa WNW 1.4 km/h 1.8 km/h 73% 0 mm 195.61 W/m2
16:10 22.4 °C 17.3 °C 1016.1 hPa WNW 1.4 km/h 1.8 km/h 73% 0 mm 162.22 W/m2
16:15 22.4 °C 17.6 °C 1016.5 hPa West 3.5 km/h 3.5 km/h 74% 0 mm 146.56 W/m2
16:20 22.4 °C 17.3 °C 1016.5 hPa West 0.3 km/h 1.8 km/h 73% 0 mm 193.05 W/m2
16:25 22.7 °C 17.6 °C 1016.1 hPa Calm     73% 0 mm 267.18 W/m2
16:30 22.9 °C 17.6 °C 1016.5 hPa ENE 2.9 km/h 3.5 km/h 72% 0 mm 183.02 W/m2
16:35 22.6 °C 17.7 °C 1016.5 hPa WNW 3.2 km/h 3.5 km/h 74% 0 mm 135.30 W/m2
16:40 22.5 °C 17.8 °C 1016.5 hPa NW 4.7 km/h 5.5 km/h 75% 0 mm 121.36 W/m2
16:45 22.3 °C 18.1 °C 1016.1 hPa NW 1.8 km/h 1.8 km/h 77% 0 mm 113.16 W/m2
16:50 22 °C 18 °C 1016.5 hPa Calm     78% 0 mm 130.90 W/m2
16:55 21.9 °C 18.1 °C 1016.1 hPa West 4.7 km/h 5.5 km/h 79% 0 mm 112.30 W/m2
17:00 21.7 °C 18.1 °C 1016.1 hPa WNW 4.3 km/h 5.5 km/h 80% 0 mm 82.33 W/m2
17:05 21.5 °C 18.1 °C 1016.1 hPa WNW 4.7 km/h 5.5 km/h 81% 0 mm 100.56 W/m2
17:10 21.4 °C 18 °C 1016.1 hPa West 6.4 km/h 7.2 km/h 81% 0 mm 73.28 W/m2
17:15 21.3 °C 17.9 °C 1016.1 hPa WNW 8.2 km/h 13 km/h 81% 0 mm 79.76 W/m2
17:20 21.2 °C 17.8 °C 1015.8 hPa WSW 7.9 km/h 11.1 km/h 81% 0 mm 92.73 W/m2
17:25 21.2 °C 18 °C 1016.1 hPa WNW 5.5 km/h 5.5 km/h 82% 0 mm 62.02 W/m2
17:30 21.2 °C 18 °C 1015.8 hPa West 6.1 km/h 7.2 km/h 82% 0 mm 54.56 W/m2
17:35 21.1 °C 17.9 °C 1015.8 hPa WNW 5 km/h 5.5 km/h 82% 0 mm 53.70 W/m2
17:40 21 °C 18 °C 1015.8 hPa West 5.8 km/h 7.2 km/h 83% 0 mm 29.85 W/m2
17:45 20.9 °C 17.9 °C 1015.8 hPa West 4.7 km/h 7.2 km/h 83% 0 mm 25.94 W/m2
17:50 20.8 °C 17.8 °C 1015.8 hPa West 3.5 km/h 3.5 km/h 83% 0 mm 23.85 W/m2
17:55 20.8 °C 17.8 °C 1015.8 hPa NW 3.5 km/h 3.5 km/h 83% 0 mm 28.14 W/m2
18:00 20.7 °C 17.9 °C 1015.8 hPa WNW 4 km/h 5.5 km/h 84% 0 mm 28.14 W/m2
18:05 20.7 °C 17.9 °C 1015.8 hPa West 4.7 km/h 5.5 km/h 84% 0 mm 16.39 W/m2
18:10 20.7 °C 17.9 °C 1015.8 hPa West 7.9 km/h 9.3 km/h 84% 0 mm 22.87 W/m2
18:15 20.6 °C 17.8 °C 1015.8 hPa West 6.4 km/h 7.2 km/h 84% 0 mm 22.87 W/m2
18:20 20.6 °C 18 °C 1015.5 hPa West 4.3 km/h 5.5 km/h 85% 0 mm 15.17 W/m2
18:25 20.5 °C 17.9 °C 1015.5 hPa West 6.4 km/h 7.2 km/h 85% 0 mm 11.62 W/m2
18:30 20.5 °C 17.9 °C 1015.5 hPa West 3.5 km/h 3.5 km/h 85% 0 mm 8.56 W/m2
18:35 20.4 °C 17.8 °C 1015.5 hPa West 3.5 km/h 3.5 km/h 85% 0 mm 5.63 W/m2
18:40 20.5 °C 17.9 °C 1015.8 hPa West 7.9 km/h 11.1 km/h 85% 0 mm 2.08 W/m2
18:45 20.5 °C 17.9 °C 1015.8 hPa West 5.5 km/h 7.2 km/h 85% 0 mm 2.08 W/m2
18:50 20.4 °C 17.8 °C 1015.8 hPa WNW 4.7 km/h 5.5 km/h 85% 0 mm 1.22 W/m2
18:55 20.4 °C 17.8 °C 1015.5 hPa NW 8.7 km/h 13 km/h 85% 0 mm 0.00 W/m2
19:00 20.4 °C 18 °C 1015.5 hPa WNW 5 km/h 7.2 km/h 86% 0 mm 0.00 W/m2
19:05 20.3 °C 17.9 °C 1015.5 hPa WNW 4.7 km/h 7.2 km/h 86% 0 mm 0.00 W/m2
19:10 20.3 °C 17.9 °C 1015.8 hPa West 6.4 km/h 7.2 km/h 86% 0 mm 0.00 W/m2
19:15 20.3 °C 17.7 °C 1016.1 hPa West 8.7 km/h 11.1 km/h 85% 0 mm 0.00 W/m2
19:20 20.3 °C 17.9 °C 1015.8 hPa WNW 5 km/h 5.5 km/h 86% 0 mm 0.00 W/m2
19:25 20.3 °C 17.9 °C 1015.8 hPa West 4.7 km/h 5.5 km/h 86% 0 mm 0.00 W/m2
19:30 20.1 °C 17.7 °C 1015.8 hPa West 4.7 km/h 5.5 km/h 86% 0 mm 0.00 W/m2
19:35 20.1 °C 17.9 °C 1016.1 hPa WNW 9.3 km/h 9.3 km/h 87% 0 mm 0.00 W/m2
19:40 20 °C 17.8 °C 1016.1 hPa WNW 6.4 km/h 11.1 km/h 87% 0 mm 0.00 W/m2
19:45 19.9 °C 17.7 °C 1016.1 hPa West 2.9 km/h 5.5 km/h 87% 0 mm 0.00 W/m2
19:50 19.9 °C 17.7 °C 1015.8 hPa NW 7.6 km/h 11.1 km/h 87% 0 mm 0.00 W/m2
19:55 19.8 °C 17.7 °C 1016.1 hPa WNW 3.5 km/h 3.5 km/h 88% 0 mm 0.00 W/m2
20:00 19.7 °C 17.8 °C 1016.1 hPa West 2.6 km/h 3.5 km/h 89% 0 mm 0.00 W/m2
20:05 19.5 °C 17.8 °C 1016.1 hPa West 6.4 km/h 7.2 km/h 90% 0 mm 0.00 W/m2
20:10 19.4 °C 17.7 °C 1016.5 hPa WNW 4 km/h 5.5 km/h 90% 0 mm 0.00 W/m2
20:15 19.4 °C 17.7 °C 1016.5 hPa West 4 km/h 5.5 km/h 90% 0 mm 0.00 W/m2
20:20 19.3 °C 17.8 °C 1016.5 hPa WNW 2.9 km/h 3.5 km/h 91% 0 mm 0.00 W/m2
20:25 19.3 °C 17.8 °C 1016.5 hPa West 2.9 km/h 5.5 km/h 91% 0.25 mm 0.00 W/m2
20:30 19.2 °C 17.9 °C 1016.5 hPa West 2.9 km/h 3.5 km/h 92% 0.25 mm 0.00 W/m2
20:35 19 °C 17.7 °C 1016.5 hPa West 7.2 km/h 11.1 km/h 92% 0.25 mm 0.00 W/m2
20:40 19 °C 17.8 °C 1016.1 hPa West 5.5 km/h 7.2 km/h 93% 0.25 mm 0.00 W/m2
20:45 18.9 °C 17.7 °C 1016.5 hPa West 4.7 km/h 7.2 km/h 93% 0.25 mm 0.00 W/m2
20:50 18.9 °C 17.7 °C 1016.5 hPa West 4 km/h 5.5 km/h 93% 0.51 mm 0.00 W/m2
20:55 18.8 °C 17.7 °C 1016.5 hPa West 3.5 km/h 3.5 km/h 94% 0.51 mm 0.00 W/m2
21:00 18.7 °C 17.6 °C 1016.5 hPa West 2.9 km/h 3.5 km/h 94% 0.51 mm 0.00 W/m2
21:05 18.7 °C 17.6 °C 1016.5 hPa West 4 km/h 5.5 km/h 94% 0.51 mm 0.00 W/m2
21:10 18.7 °C 17.6 °C 1016.5 hPa West 4 km/h 5.5 km/h 94% 0.51 mm 0.00 W/m2
21:15 18.6 °C 17.5 °C 1016.5 hPa NW 6.1 km/h 7.2 km/h 94% 0.76 mm 0.00 W/m2
21:20 18.6 °C 17.8 °C 1016.1 hPa WNW 5.8 km/h 7.2 km/h 95% 0.51 mm 0.00 W/m2
21:25 18.6 °C 17.8 °C 1016.1 hPa WNW 7.2 km/h 9.3 km/h 95% 0.76 mm 0.00 W/m2
21:30 18.6 °C 17.8 °C 1016.1 hPa WNW 10.1 km/h 13 km/h 95% 0.76 mm 0.00 W/m2
21:35 18.6 °C 17.5 °C 1015.5 hPa West 6.4 km/h 9.3 km/h 94% 0.76 mm 0.00 W/m2
21:40 18.6 °C 17.8 °C 1015.8 hPa WNW 6.9 km/h 9.3 km/h 95% 1.02 mm 0.00 W/m2
21:45 18.5 °C 17.7 °C 1015.8 hPa WNW 7.2 km/h 7.2 km/h 95% 1.02 mm 0.00 W/m2
21:50 18.5 °C 17.7 °C 1016.1 hPa WNW 6.9 km/h 7.2 km/h 95% 1.02 mm 0.00 W/m2
21:55 18.5 °C 17.7 °C 1015.8 hPa West 6.1 km/h 7.2 km/h 95% 1.27 mm 0.00 W/m2
22:00 18.5 °C 17.9 °C 1015.5 hPa WNW 4 km/h 5.5 km/h 96% 1.27 mm 0.00 W/m2
22:05 18.5 °C 17.9 °C 1015.5 hPa WNW 6.4 km/h 9.3 km/h 96% 1.52 mm 0.00 W/m2
22:10 18.5 °C 17.9 °C 1015.1 hPa WNW 7.6 km/h 9.3 km/h 96% 1.27 mm 0.00 W/m2
22:15 18.5 °C 17.9 °C 1014.8 hPa WNW 9.7 km/h 11.1 km/h 96% 1.27 mm 0.00 W/m2
22:20 18.5 °C 17.9 °C 1015.1 hPa WNW 4.7 km/h 5.5 km/h 96% 1.02 mm 0.00 W/m2
22:25 18.5 °C 17.9 °C 1015.5 hPa West 3.2 km/h 3.5 km/h 96% 1.02 mm 0.00 W/m2
22:30 18.5 °C 17.7 °C 1015.5 hPa Calm     95% 1.02 mm 0.00 W/m2
22:35 18.5 °C 17.9 °C 1015.5 hPa West 2.6 km/h 3.5 km/h 96% 0.76 mm 0.00 W/m2
22:40 18.5 °C 17.7 °C 1015.5 hPa West 3.5 km/h 5.5 km/h 95% 0.51 mm 0.00 W/m2
22:45 18.5 °C 17.7 °C 1015.5 hPa West 2.6 km/h 3.5 km/h 95% 0.51 mm 0.00 W/m2
22:50 18.5 °C 17.7 °C 1015.8 hPa Calm     95% 0.25 mm 0.00 W/m2
22:55 18.5 °C 17.9 °C 1015.8 hPa WNW 3.5 km/h 3.5 km/h 96% 0.25 mm 0.00 W/m2
23:00 18.5 °C 17.9 °C 1015.8 hPa West 2.1 km/h 3.5 km/h 96% 0 mm 0.00 W/m2
23:05 18.4 °C 17.8 °C 1015.5 hPa West 3.5 km/h 3.5 km/h 96% 0 mm 0.00 W/m2
23:10 18.4 °C 17.8 °C 1015.8 hPa West 5.5 km/h 5.5 km/h 96% 0 mm 0.00 W/m2
23:15 18.4 °C 17.8 °C 1015.5 hPa West 3.5 km/h 5.5 km/h 96% 0 mm 0.00 W/m2
23:20 18.4 °C 17.8 °C 1015.5 hPa West 5.8 km/h 7.2 km/h 96% 0 mm 0.00 W/m2
23:25 18.3 °C 17.7 °C 1015.5 hPa WSW 4.3 km/h 5.5 km/h 96% 0 mm 0.00 W/m2
23:30 18.3 °C 17.7 °C 1015.5 hPa West 6.4 km/h 7.2 km/h 96% 0 mm 0.00 W/m2
23:35 18.3 °C 17.7 °C 1015.5 hPa West 3.5 km/h 3.5 km/h 96% 0 mm 0.00 W/m2
23:40 18.3 °C 17.7 °C 1015.5 hPa West 5.5 km/h 7.2 km/h 96% 0 mm 0.00 W/m2
23:45 18.3 °C 17.7 °C 1015.5 hPa WNW 3.5 km/h 3.5 km/h 96% 0 mm 0.00 W/m2
23:50 18.3 °C 17.7 °C 1015.5 hPa West 4 km/h 7.2 km/h 96% 0 mm 0.00 W/m2
23:55 18.2 °C 17.6 °C 1015.1 hPa West 6.1 km/h 7.2 km/h 96% 0 mm 0.00 W/m2
Soleil Laural Canyon
Compliments of Weather Underground - 4 mb